Reno, NV

8:07 PM PDT on September 26, 2016 (GMT -0700)
UNR Campus, LMR Roof | | Change Station

Elev 4570 ft 39.54 °N, 119.81 °W | Updated 3 seconds ago

Clear
Clear
70.9 °F
Feels Like 75 °F
N
0.8
Wind Variable Wind from NNE
Gusts 0.0 mph

Today
High -- | Low -- °F
--% Chance of Precip.
Yesterday
High -- | Low -- °F
Precip. -- in
Pressure 30.05 in
Visibility 10.0 miles
Clouds Clear
Heat Index 75 °F
Dew Point 32 °F
Humidity 23%
Rainfall 0.00 in
Snow Depth Not available.
6:51 AM 6:48 PM
Waning Crescent, 14% visible
METAR KRNO 270255Z 00000KT 10SM CLR 24/M02 A3017 RMK AO2 SLP176 T02391022 53002
Pressure 30.05 in
Visibility 10.0 miles
Clouds Clear
Heat Index 75 °F
Dew Point 32 °F
Humidity 23%
Rainfall 0.00 in
Snow Depth Not available.
6:51 AM 6:48 PM
Waning Crescent, 14% visible
METAR KRNO 270255Z 00000KT 10SM CLR 24/M02 A3017 RMK AO2 SLP176 T02391022 53002

10-Day Weather Forecast

Almanac

Astronomy

Sep. 26, 2016 Rise Set
Actual Time
Civil Twilight
Nautical Twilight
Astronomical Twilight
Moon
Length of Visible Light
Length of Day
Tomorrow will be .
, % of the Moon is Illuminated

Today's Extremes

State Highs State Lows

Community

WunderPhotos

Upload Photos

1,942,026 photos uploaded!

WunderBlog® & News

Nearby

Air Quality

  Air Quality AQ Index Pollutant
Not available.

Snow Depth

Station Depth Elevation

Earthquake Activity

City Distance Mag. Time & Date
Minimum magnitude displayed is 2.5.

Coastal Water Temperatures

Place Temperature

Stations

Nearby Weather Stations

Station Location Temp. Windchill Dew Point Humidity Wind Precip. Elev Updated Type
                   

Watches & Warnings

There are currently no watches in effect.